createdAt,value
2022-09-26T00:01:42.880Z,6.67
2022-09-26T00:04:22.338Z,7.30
2022-09-26T00:06:53.451Z,7.60
2022-09-26T00:09:22.865Z,7.17
2022-09-26T00:11:52.029Z,6.87
2022-09-26T00:14:22.398Z,7.07
2022-09-26T00:16:51.019Z,6.80
2022-09-26T00:19:19.768Z,6.90
2022-09-26T00:21:48.046Z,7.23
2022-09-26T00:24:18.004Z,7.13
2022-09-26T00:26:46.366Z,7.27
2022-09-26T00:29:15.349Z,8.07
2022-09-26T00:31:45.572Z,6.60
2022-09-26T00:34:14.728Z,6.23
2022-09-26T00:36:42.965Z,6.53
2022-09-26T00:39:14.285Z,7.00
2022-09-26T00:41:44.482Z,7.40
2022-09-26T00:44:46.410Z,6.87
2022-09-26T00:47:26.787Z,6.67
2022-09-26T00:49:58.988Z,6.73
2022-09-26T00:52:30.828Z,6.83
2022-09-26T00:55:02.558Z,7.23
2022-09-26T00:57:36.119Z,6.70
2022-09-26T01:00:08.925Z,7.17
2022-09-26T01:02:37.670Z,7.37
2022-09-26T01:05:07.856Z,7.30
2022-09-26T01:07:36.792Z,7.20
2022-09-26T01:10:06.846Z,7.53
2022-09-26T01:12:38.945Z,7.73
2022-09-26T01:15:09.574Z,7.70
2022-09-26T01:17:39.641Z,7.30
2022-09-26T01:20:26.539Z,7.37
2022-09-26T01:23:23.604Z,7.40
2022-09-26T01:26:16.216Z,7.80
2022-09-26T01:29:18.974Z,7.20
2022-09-26T01:32:12.504Z,7.20
2022-09-26T01:34:50.896Z,7.90
2022-09-26T01:37:28.154Z,7.17
2022-09-26T01:40:12.009Z,7.57
2022-09-26T01:42:47.985Z,7.30
2022-09-26T01:45:20.785Z,7.90
2022-09-26T01:47:56.521Z,7.47
2022-09-26T01:50:32.807Z,7.20
2022-09-26T01:53:04.954Z,7.33
2022-09-26T01:55:38.624Z,7.77
2022-09-26T01:58:11.205Z,7.47
2022-09-26T02:00:42.747Z,8.60
2022-09-26T02:03:16.747Z,7.03
2022-09-26T02:05:49.804Z,7.60
2022-09-26T02:08:21.639Z,7.30
2022-09-26T02:10:52.189Z,7.97
2022-09-26T02:13:23.730Z,7.30
2022-09-26T02:15:58.124Z,7.93
2022-09-26T02:18:32.613Z,7.33
2022-09-26T02:21:04.426Z,7.53
2022-09-26T02:23:32.707Z,7.43
2022-09-26T02:26:01.362Z,7.60
2022-09-26T02:28:29.678Z,8.17
2022-09-26T02:31:01.428Z,7.20
2022-09-26T02:33:31.697Z,7.77
2022-09-26T02:36:00.234Z,8.20
2022-09-26T02:38:30.126Z,7.30
2022-09-26T02:41:05.700Z,7.30
2022-09-26T02:43:57.853Z,7.57
2022-09-26T02:46:54.226Z,6.83
2022-09-26T02:50:00.300Z,7.57
2022-09-26T02:52:37.348Z,8.07
2022-09-26T02:55:20.901Z,6.97
2022-09-26T02:57:55.965Z,7.73
2022-09-26T03:00:28.639Z,7.00
2022-09-26T03:03:03.188Z,7.40
2022-09-26T03:05:34.090Z,7.70
2022-09-26T03:08:08.653Z,7.43
2022-09-26T03:10:38.404Z,7.20
2022-09-26T03:13:09.772Z,7.50
2022-09-26T03:15:40.255Z,7.27
2022-09-26T03:18:13.011Z,7.53
2022-09-26T03:20:42.790Z,6.97
2022-09-26T03:23:11.103Z,7.10
2022-09-26T03:25:39.621Z,7.13
2022-09-26T03:28:08.123Z,7.93
2022-09-26T03:30:36.391Z,7.90
2022-09-26T03:33:04.632Z,8.20
2022-09-26T03:35:32.848Z,7.30
2022-09-26T03:38:02.587Z,7.80
2022-09-26T03:40:30.900Z,7.40
2022-09-26T03:42:59.197Z,6.87
2022-09-26T03:45:28.831Z,7.90
2022-09-26T03:47:57.876Z,8.00
2022-09-26T03:50:26.265Z,7.67
2022-09-26T03:52:54.532Z,7.83
2022-09-26T03:55:24.177Z,7.33
2022-09-26T03:57:52.465Z,7.17
2022-09-26T04:00:20.771Z,7.30
2022-09-26T04:02:49.085Z,7.77
2022-09-26T04:05:17.418Z,7.57
2022-09-26T04:07:47.190Z,8.07
2022-09-26T04:10:15.689Z,8.27
2022-09-26T04:12:46.583Z,7.83
2022-09-26T04:15:14.837Z,7.33
2022-09-26T04:17:43.135Z,8.45
2022-09-26T04:20:11.397Z,7.83
2022-09-26T04:22:40.982Z,7.70
2022-09-26T04:25:10.201Z,7.87
2022-09-26T04:27:38.555Z,8.50
2022-09-26T04:30:09.462Z,7.47
2022-09-26T04:32:37.673Z,7.47
2022-09-26T04:35:06.677Z,8.10
2022-09-26T04:37:37.123Z,7.60
2022-09-26T04:40:05.665Z,8.13
2022-09-26T04:42:36.993Z,8.23
2022-09-26T04:45:06.247Z,8.07
2022-09-26T04:47:35.898Z,7.83
2022-09-26T04:50:04.256Z,7.53
2022-09-26T04:52:32.700Z,7.53
2022-09-26T04:55:00.959Z,8.73
2022-09-26T04:57:29.236Z,8.10
2022-09-26T04:59:57.463Z,8.37
2022-09-26T05:02:26.058Z,8.33
2022-09-26T05:04:59.975Z,7.87
2022-09-26T05:07:31.489Z,7.93
2022-09-26T05:09:59.724Z,9.23
2022-09-26T05:12:28.006Z,9.03
2022-09-26T05:14:56.895Z,8.03
2022-09-26T05:17:25.366Z,8.17
2022-09-26T05:19:54.991Z,9.10
2022-09-26T05:22:23.195Z,10.00
2022-09-26T05:25:08.739Z,8.97
2022-09-26T05:27:37.022Z,9.03
2022-09-26T05:30:05.901Z,9.47
2022-09-26T05:32:34.277Z,9.00
2022-09-26T05:35:05.310Z,8.87
2022-09-26T05:37:33.604Z,9.33
2022-09-26T05:40:19.606Z,9.67
2022-09-26T05:42:47.909Z,8.50
2022-09-26T05:45:16.309Z,9.10
2022-09-26T05:47:48.772Z,8.30
2022-09-26T05:50:22.409Z,9.57
2022-09-26T05:52:50.714Z,8.60
2022-09-26T05:55:19.070Z,8.30
2022-09-26T05:57:52.357Z,8.90
2022-09-26T06:00:20.748Z,7.70
2022-09-26T06:02:56.522Z,8.60
2022-09-26T06:05:26.434Z,7.53
2022-09-26T06:07:54.883Z,8.40
2022-09-26T06:10:23.788Z,8.97
2022-09-26T06:12:52.069Z,7.50
2022-09-26T06:15:20.427Z,8.30
2022-09-26T06:17:48.817Z,8.57
2022-09-26T06:20:17.304Z,8.47
2022-09-26T06:22:46.997Z,8.30
2022-09-26T06:25:15.286Z,9.00
2022-09-26T06:27:43.986Z,7.70
2022-09-26T06:30:12.887Z,8.20
2022-09-26T06:32:41.338Z,7.93
2022-09-26T06:35:10.805Z,8.40
2022-09-26T06:37:39.068Z,7.97
2022-09-26T06:40:11.588Z,8.43
2022-09-26T06:42:40.705Z,8.73
2022-09-26T06:45:10.535Z,7.97
2022-09-26T06:47:38.943Z,8.37
2022-09-26T06:50:08.453Z,7.30
2022-09-26T06:52:36.688Z,7.37
2022-09-26T06:55:07.807Z,7.60
2022-09-26T06:57:40.711Z,6.57
2022-09-26T07:00:10.527Z,6.83
2022-09-26T07:02:38.833Z,6.50
2022-09-26T07:05:08.109Z,6.43
2022-09-26T07:07:43.194Z,7.18
2022-09-26T07:10:12.044Z,5.35
2022-09-26T07:12:44.300Z,6.73
2022-09-26T07:15:13.862Z,5.40
2022-09-26T07:17:51.009Z,5.53
2022-09-26T07:20:21.183Z,5.50
2022-09-26T07:22:49.380Z,5.23
2022-09-26T07:25:18.143Z,5.37
2022-09-26T07:27:57.110Z,4.78
2022-09-26T07:30:27.047Z,4.60
2022-09-26T07:33:00.591Z,5.28
2022-09-26T07:35:28.825Z,4.82
2022-09-26T07:37:58.312Z,4.68
2022-09-26T07:40:27.112Z,4.38
2022-09-26T07:43:18.450Z,4.63
2022-09-26T07:46:05.119Z,4.57
2022-09-26T07:48:50.597Z,4.20
2022-09-26T07:51:19.826Z,3.83
2022-09-26T07:53:48.134Z,4.35
2022-09-26T07:56:16.981Z,4.10
2022-09-26T07:58:46.600Z,4.25
2022-09-26T08:01:16.881Z,4.40
2022-09-26T08:03:48.177Z,3.75
2022-09-26T08:06:20.333Z,3.72
2022-09-26T08:08:49.840Z,4.50
2022-09-26T08:11:20.448Z,3.83
2022-09-26T08:13:50.514Z,3.53
2022-09-26T08:16:20.736Z,3.70
2022-09-26T08:18:49.146Z,3.53
2022-09-26T08:21:18.003Z,4.25
2022-09-26T08:23:47.327Z,4.03
2022-09-26T08:26:15.539Z,4.68
2022-09-26T08:28:44.091Z,3.97
2022-09-26T08:31:13.790Z,4.30
2022-09-26T08:33:42.167Z,4.00
2022-09-26T08:36:14.256Z,3.97
2022-09-26T08:38:42.960Z,3.95
2022-09-26T08:41:29.933Z,3.83
2022-09-26T08:44:11.168Z,3.65
2022-09-26T08:46:51.707Z,3.13
2022-09-26T08:49:42.578Z,3.10
2022-09-26T08:52:38.418Z,3.05
2022-09-26T08:55:21.235Z,2.63
2022-09-26T08:57:53.741Z,2.88
2022-09-26T09:00:24.445Z,2.70
2022-09-26T09:03:10.595Z,2.78
2022-09-26T09:05:41.273Z,3.00
2022-09-26T09:08:14.866Z,2.90
2022-09-26T09:10:47.700Z,2.78
2022-09-26T09:13:27.977Z,2.60
2022-09-26T09:16:17.849Z,2.67
2022-09-26T09:18:55.628Z,2.55
2022-09-26T09:21:34.255Z,2.70
2022-09-26T09:24:18.968Z,2.45
2022-09-26T09:30:18.789Z,2.30
2022-09-26T09:32:52.076Z,2.53
2022-09-26T09:35:29.365Z,2.38
2022-09-26T09:37:58.674Z,3.30
2022-09-26T09:40:32.907Z,3.15
2022-09-26T09:43:05.114Z,2.67
2022-09-26T09:45:41.681Z,2.70
2022-09-26T09:48:13.088Z,2.67
2022-09-26T09:50:51.624Z,2.60
2022-09-26T09:53:37.618Z,2.95
2022-09-26T09:56:18.210Z,2.35
2022-09-26T09:59:03.676Z,2.03
2022-09-26T10:01:36.764Z,2.55
2022-09-26T10:04:14.166Z,2.10
2022-09-26T10:06:47.310Z,2.10
2022-09-26T10:09:38.542Z,2.33
2022-09-26T10:12:14.361Z,2.75
2022-09-26T10:14:48.578Z,2.35
2022-09-26T10:17:21.573Z,2.40
2022-09-26T10:19:50.738Z,2.20
2022-09-26T10:22:26.322Z,2.10
2022-09-26T10:25:01.610Z,2.50
2022-09-26T10:27:36.935Z,1.73
2022-09-26T10:30:21.280Z,2.28
2022-09-26T10:32:56.514Z,2.28
2022-09-26T10:35:28.737Z,2.17
2022-09-26T10:38:03.035Z,2.20
2022-09-26T10:40:47.110Z,2.15
2022-09-26T10:43:28.708Z,1.92
2022-09-26T10:46:04.870Z,2.22
2022-09-26T10:48:48.514Z,2.03
2022-09-26T10:51:24.831Z,2.00
2022-09-26T10:54:01.809Z,2.40
2022-09-26T10:56:34.106Z,2.10
2022-09-26T10:59:10.248Z,2.30
2022-09-26T11:01:43.320Z,1.95
2022-09-26T11:04:39.275Z,2.20
2022-09-26T11:07:09.791Z,2.20
2022-09-26T11:09:39.809Z,1.98
2022-09-26T11:12:26.391Z,2.00
2022-09-26T11:14:57.925Z,2.20
2022-09-26T11:17:45.428Z,2.42
2022-09-26T11:20:21.842Z,2.42
2022-09-26T11:22:56.048Z,2.15
2022-09-26T11:25:30.152Z,2.30
2022-09-26T11:28:07.122Z,2.17
2022-09-26T11:30:41.002Z,2.20
2022-09-26T11:33:14.122Z,2.20
2022-09-26T11:35:51.735Z,2.17
2022-09-26T11:38:38.380Z,2.22
2022-09-26T11:41:36.562Z,2.42
2022-09-26T11:44:22.016Z,2.00
2022-09-26T11:47:04.873Z,2.00
2022-09-26T11:50:09.220Z,2.08
2022-09-26T11:52:49.735Z,2.28
2022-09-26T11:55:25.035Z,2.33
2022-09-26T11:58:04.200Z,1.70
2022-09-26T12:00:41.937Z,1.98
2022-09-26T12:03:57.205Z,2.50
2022-09-26T12:06:33.610Z,2.42
2022-09-26T12:09:37.911Z,2.58
2022-09-26T12:12:16.096Z,2.47
2022-09-26T12:15:02.346Z,2.20
2022-09-26T12:17:45.124Z,2.60
2022-09-26T12:20:33.398Z,2.38
2022-09-26T12:23:08.703Z,2.50
2022-09-26T12:25:48.430Z,2.20
2022-09-26T12:28:31.942Z,2.47
2022-09-26T12:31:09.802Z,2.20
2022-09-26T12:33:58.242Z,2.60
2022-09-26T12:36:40.511Z,2.20
2022-09-26T12:39:37.357Z,2.00
2022-09-26T12:42:18.246Z,2.35
2022-09-26T12:45:00.871Z,2.20
2022-09-26T12:47:57.057Z,2.35
2022-09-26T12:50:37.724Z,2.92
2022-09-26T12:53:31.662Z,1.95
2022-09-26T12:56:08.208Z,2.20
2022-09-26T12:58:55.373Z,2.42
2022-09-26T13:01:37.843Z,2.40
2022-09-26T13:04:38.450Z,2.10
2022-09-26T13:07:19.853Z,2.28
2022-09-26T13:10:15.316Z,2.10
2022-09-26T13:13:11.112Z,2.95
2022-09-26T13:15:48.236Z,1.92
2022-09-26T13:18:25.831Z,2.25
2022-09-26T13:21:00.160Z,2.22
2022-09-26T13:23:32.235Z,2.17
2022-09-26T13:26:04.391Z,2.00
2022-09-26T13:28:38.757Z,2.60
2022-09-26T13:31:16.433Z,2.00
2022-09-26T13:33:49.638Z,2.30
2022-09-26T13:36:22.932Z,1.98
2022-09-26T13:38:57.480Z,1.80
2022-09-26T13:41:39.060Z,2.00
2022-09-26T13:44:22.947Z,2.55
2022-09-26T13:47:12.532Z,2.35
2022-09-26T13:49:57.036Z,2.33
2022-09-26T13:52:42.759Z,2.08
2022-09-26T13:55:19.264Z,1.90
2022-09-26T13:57:51.401Z,2.20
2022-09-26T14:00:56.219Z,2.28
2022-09-26T14:03:42.629Z,1.95
2022-09-26T14:06:30.871Z,1.83
2022-09-26T14:09:28.606Z,2.30
2022-09-26T14:12:20.368Z,2.30
2022-09-26T14:15:14.073Z,2.22
2022-09-26T14:18:03.811Z,1.98
2022-09-26T14:20:38.497Z,1.65
2022-09-26T14:23:26.878Z,1.65
2022-09-26T14:26:05.391Z,2.00
2022-09-26T14:28:38.368Z,2.22
2022-09-26T14:31:31.354Z,1.88
2022-09-26T14:34:14.464Z,2.10
2022-09-26T14:36:44.317Z,2.15
2022-09-26T14:39:33.775Z,1.80
2022-09-26T14:42:19.477Z,1.85
2022-09-26T14:44:54.621Z,1.88
2022-09-26T14:47:23.390Z,2.08
2022-09-26T14:50:00.077Z,2.10
2022-09-26T14:52:28.894Z,1.67
2022-09-26T14:55:01.233Z,2.17
2022-09-26T14:57:34.565Z,1.75
2022-09-26T15:00:03.823Z,1.90
2022-09-26T15:02:41.517Z,2.10
2022-09-26T15:05:28.237Z,1.90
2022-09-26T15:08:00.459Z,2.25
2022-09-26T15:10:41.896Z,1.95
2022-09-26T15:13:24.008Z,2.42
2022-09-26T15:15:57.661Z,2.08
2022-09-26T15:18:35.695Z,2.20
2022-09-26T15:21:12.036Z,2.08
2022-09-26T15:23:49.510Z,2.00
2022-09-26T15:26:21.573Z,1.98
2022-09-26T15:28:53.246Z,2.35
2022-09-26T15:31:28.200Z,4.47
2022-09-26T15:34:00.709Z,2.60
2022-09-26T15:36:30.729Z,4.28
2022-09-26T15:38:59.333Z,2.40
2022-09-26T15:41:41.557Z,2.17
2022-09-26T15:44:20.658Z,3.17
2022-09-26T15:46:50.733Z,2.20
2022-09-26T15:49:28.521Z,2.70
2022-09-26T15:51:57.804Z,2.65
2022-09-26T15:54:30.555Z,3.70
2022-09-26T15:57:02.992Z,3.15
2022-09-26T15:59:40.923Z,3.10
2022-09-26T16:02:22.730Z,3.20
2022-09-26T16:04:53.039Z,2.97
2022-09-26T16:07:24.912Z,3.20
2022-09-26T16:09:53.959Z,2.90
2022-09-26T16:12:24.438Z,2.97
2022-09-26T16:14:59.726Z,3.60
2022-09-26T16:17:34.845Z,3.10
2022-09-26T16:20:06.058Z,3.30
2022-09-26T16:22:45.417Z,3.45
2022-09-26T16:25:34.385Z,12.05
2022-09-26T16:28:41.964Z,3.47
2022-09-26T16:31:23.296Z,3.45
2022-09-26T16:33:53.978Z,5.10
2022-09-26T16:36:24.740Z,3.00
2022-09-26T16:38:59.112Z,3.13
2022-09-26T16:41:59.330Z,6.97
2022-09-26T16:44:29.031Z,4.07
2022-09-26T16:47:04.787Z,6.72
2022-09-26T16:49:42.239Z,5.47
2022-09-26T16:52:20.361Z,4.30
2022-09-26T16:54:49.048Z,4.75
2022-09-26T16:57:22.270Z,4.07
2022-09-26T16:59:51.541Z,4.43
2022-09-26T17:02:21.705Z,4.57
2022-09-26T17:04:53.519Z,5.57
2022-09-26T17:07:22.955Z,8.38
2022-09-26T17:09:51.282Z,6.07
2022-09-26T17:12:24.147Z,6.20
2022-09-26T17:14:53.674Z,5.80
2022-09-26T17:17:26.101Z,6.38
2022-09-26T17:19:59.412Z,6.60
2022-09-26T17:22:34.482Z,5.88
2022-09-26T17:25:02.896Z,5.82
2022-09-26T17:27:34.366Z,6.00
2022-09-26T17:30:07.411Z,5.90
2022-09-26T17:32:39.305Z,6.47
2022-09-26T17:35:14.374Z,6.03
2022-09-26T17:37:42.949Z,5.80
2022-09-26T17:40:19.397Z,5.40
2022-09-26T17:42:50.055Z,5.45
2022-09-26T17:45:18.543Z,6.13
2022-09-26T17:47:48.848Z,5.65
2022-09-26T17:50:22.889Z,6.05
2022-09-26T17:52:51.543Z,5.43
2022-09-26T17:55:23.650Z,5.20
2022-09-26T17:57:53.279Z,5.97
2022-09-26T18:00:22.294Z,5.90
2022-09-26T18:02:58.646Z,6.13
2022-09-26T18:05:30.769Z,6.07
2022-09-26T18:08:02.709Z,5.30
2022-09-26T18:10:34.192Z,5.15
2022-09-26T18:13:12.101Z,5.30
2022-09-26T18:15:41.680Z,5.45
2022-09-26T18:18:16.904Z,5.82
2022-09-26T18:20:47.420Z,5.70
2022-09-26T18:23:20.773Z,5.38
2022-09-26T18:25:53.667Z,6.22
2022-09-26T18:28:24.528Z,6.60
2022-09-26T18:30:58.176Z,6.15
2022-09-26T18:33:29.318Z,6.38
2022-09-26T18:35:59.446Z,5.35
2022-09-26T18:38:28.002Z,5.55
2022-09-26T18:40:58.756Z,5.45
2022-09-26T18:43:36.512Z,5.63
2022-09-26T18:46:10.134Z,5.45
2022-09-26T18:48:41.802Z,6.38
2022-09-26T18:51:12.017Z,5.78
2022-09-26T18:53:41.145Z,5.30
2022-09-26T18:56:27.790Z,5.38
2022-09-26T18:58:56.820Z,5.57
2022-09-26T19:01:29.942Z,5.97
2022-09-26T19:04:03.504Z,5.28
2022-09-26T19:06:35.922Z,5.75
2022-09-26T19:09:06.420Z,5.88
2022-09-26T19:11:36.307Z,5.55
2022-09-26T19:14:13.567Z,5.88
2022-09-26T19:16:42.507Z,5.10
2022-09-26T19:19:12.764Z,5.32
2022-09-26T19:21:42.747Z,5.53
2022-09-26T19:24:20.883Z,9.05
2022-09-26T19:26:51.325Z,7.43
2022-09-26T19:29:26.490Z,5.32
2022-09-26T19:31:54.974Z,6.00
2022-09-26T19:34:27.251Z,4.90
2022-09-26T19:36:58.805Z,5.10
2022-09-26T19:39:27.525Z,4.88
2022-09-26T19:41:55.957Z,4.60
2022-09-26T19:44:24.483Z,4.53
2022-09-26T19:46:52.985Z,4.90
2022-09-26T19:49:22.684Z,4.97
2022-09-26T19:51:52.570Z,4.90
2022-09-26T19:54:20.964Z,4.82
2022-09-26T19:56:49.433Z,5.50
2022-09-26T19:59:17.927Z,6.10
2022-09-26T20:01:47.568Z,5.88
2022-09-26T20:04:18.300Z,5.30
2022-09-26T20:06:47.215Z,5.10
2022-09-26T20:09:19.599Z,5.32
2022-09-26T20:11:48.133Z,5.95
2022-09-26T20:14:25.223Z,5.38
2022-09-26T20:16:56.327Z,5.78
2022-09-26T20:19:37.251Z,5.05
2022-09-26T20:22:08.016Z,5.47
2022-09-26T20:24:39.757Z,5.25
2022-09-26T20:27:12.003Z,5.55
2022-09-26T20:29:57.652Z,5.55
2022-09-26T20:32:26.620Z,5.75
2022-09-26T20:34:59.238Z,5.90
2022-09-26T20:37:28.255Z,5.68
2022-09-26T20:39:58.128Z,5.55
2022-09-26T20:42:28.541Z,5.72
2022-09-26T20:44:57.216Z,5.80
2022-09-26T20:47:25.729Z,5.95
2022-09-26T20:49:58.487Z,6.13
2022-09-26T20:52:28.584Z,6.10
2022-09-26T20:54:59.029Z,6.05
2022-09-26T20:57:27.445Z,5.65
2022-09-26T20:59:56.855Z,5.07
2022-09-26T21:02:28.590Z,6.20
2022-09-26T21:05:00.221Z,5.50
2022-09-26T21:07:30.224Z,5.47
2022-09-26T21:10:00.170Z,5.68
2022-09-26T21:12:28.561Z,5.63
2022-09-26T21:14:56.918Z,5.38
2022-09-26T21:17:29.783Z,4.70
2022-09-26T21:19:58.293Z,5.78
2022-09-26T21:22:28.436Z,6.00
2022-09-26T21:24:56.858Z,6.68
2022-09-26T21:27:26.726Z,5.97
2022-09-26T21:29:55.076Z,5.55
2022-09-26T21:32:24.402Z,5.47
2022-09-26T21:34:59.355Z,5.47
2022-09-26T21:37:27.808Z,5.70
2022-09-26T21:39:56.279Z,6.20
2022-09-26T21:42:28.218Z,6.20
2022-09-26T21:45:00.151Z,5.72
2022-09-26T21:47:28.631Z,5.80
2022-09-26T21:49:57.417Z,6.38
2022-09-26T21:52:33.991Z,5.82
2022-09-26T21:55:03.297Z,6.07
2022-09-26T21:57:35.771Z,6.90
2022-09-26T22:00:07.214Z,6.45
2022-09-26T22:02:35.677Z,6.35
2022-09-26T22:05:03.993Z,6.18
2022-09-26T22:07:32.519Z,6.45
2022-09-26T22:10:00.864Z,5.95
2022-09-26T22:12:29.189Z,6.45
2022-09-26T22:14:59.381Z,6.20
2022-09-26T22:17:28.125Z,6.25
2022-09-26T22:19:56.457Z,6.03
2022-09-26T22:22:24.817Z,5.75
2022-09-26T22:24:54.002Z,5.23
2022-09-26T22:27:22.537Z,5.93
2022-09-26T22:29:50.872Z,5.90
2022-09-26T22:32:20.593Z,5.97
2022-09-26T22:34:49.241Z,6.25
2022-09-26T22:37:17.645Z,5.57
2022-09-26T22:39:46.412Z,6.18
2022-09-26T22:42:14.888Z,5.60
2022-09-26T22:44:46.216Z,6.25
2022-09-26T22:47:14.654Z,5.65
2022-09-26T22:49:44.499Z,5.75
2022-09-26T22:52:12.870Z,5.95
2022-09-26T22:54:41.308Z,5.87
2022-09-26T22:57:09.675Z,5.50
2022-09-26T22:59:38.451Z,5.50
2022-09-26T23:02:06.893Z,5.30
2022-09-26T23:04:47.932Z,5.35
2022-09-26T23:07:19.513Z,5.57
2022-09-26T23:09:48.002Z,5.90
2022-09-26T23:12:16.453Z,5.10
2022-09-26T23:14:44.840Z,5.63
2022-09-26T23:17:13.888Z,5.47
2022-09-26T23:19:42.451Z,5.73
2022-09-26T23:22:10.849Z,5.40
2022-09-26T23:24:40.776Z,5.78
2022-09-26T23:27:09.101Z,5.20
2022-09-26T23:29:38.057Z,5.67
2022-09-26T23:32:06.499Z,5.55
2022-09-26T23:34:34.876Z,5.45
2022-09-26T23:37:04.559Z,5.60
2022-09-26T23:39:32.896Z,5.10
2022-09-26T23:42:02.711Z,5.67
2022-09-26T23:44:32.694Z,5.73
2022-09-26T23:47:02.665Z,6.85
2022-09-26T23:49:31.190Z,6.40
2022-09-26T23:51:59.540Z,6.55
2022-09-26T23:54:27.907Z,6.63
2022-09-26T23:56:56.243Z,6.10
2022-09-26T23:59:26.036Z,6.53
